createdAt,value
2022-12-04T00:01:21.493Z,98410.31
2022-12-04T00:03:48.213Z,98405.44
2022-12-04T00:06:18.835Z,98412.00
2022-12-04T00:08:47.039Z,98404.38
2022-12-04T00:11:21.489Z,98407.69
2022-12-04T00:13:48.377Z,98403.34
2022-12-04T00:16:19.395Z,98393.03
2022-12-04T00:18:46.803Z,98389.75
2022-12-04T00:21:16.075Z,98395.34
2022-12-04T00:23:43.760Z,98392.66
2022-12-04T00:26:15.060Z,98392.56
2022-12-04T00:28:42.472Z,98387.91
2022-12-04T00:31:13.379Z,98388.31
2022-12-04T00:33:40.377Z,98390.22
2022-12-04T00:36:12.211Z,98390.13
2022-12-04T00:38:40.049Z,98391.19
2022-12-04T00:41:12.888Z,98389.41
2022-12-04T00:43:39.759Z,98377.72
2022-12-04T00:46:06.826Z,98384.38
2022-12-04T00:48:33.691Z,98379.00
2022-12-04T00:51:13.677Z,98387.72
2022-12-04T00:53:40.716Z,98384.22
2022-12-04T00:56:14.789Z,98378.19
2022-12-04T00:58:41.946Z,98387.13
2022-12-04T01:01:16.516Z,98375.03
2022-12-04T01:03:44.569Z,98383.19
2022-12-04T01:06:25.539Z,98385.00
2022-12-04T01:08:55.255Z,98387.44
2022-12-04T01:11:25.390Z,98390.72
2022-12-04T01:13:52.223Z,98387.25
2022-12-04T01:16:27.280Z,98386.41
2022-12-04T01:18:53.892Z,98385.00
2022-12-04T01:21:20.515Z,98383.53
2022-12-04T01:23:47.340Z,98386.81
2022-12-04T01:26:14.380Z,98384.75
2022-12-04T01:28:41.071Z,98380.22
2022-12-04T01:31:15.801Z,98384.66
2022-12-04T01:33:43.510Z,98367.53
2022-12-04T01:36:20.530Z,98367.59
2022-12-04T01:38:47.576Z,98375.50
2022-12-04T01:41:19.102Z,98376.31
2022-12-04T01:43:45.733Z,98376.41
2022-12-04T01:46:12.414Z,98375.19
2022-12-04T01:48:53.405Z,98373.00
2022-12-04T01:51:32.078Z,98366.13
2022-12-04T01:54:09.145Z,98361.56
2022-12-04T01:56:44.428Z,98373.25
2022-12-04T01:59:17.123Z,98365.56
2022-12-04T02:01:55.978Z,98365.72
2022-12-04T02:04:23.319Z,98359.84
2022-12-04T02:06:49.779Z,98358.00
2022-12-04T02:09:19.373Z,98360.09
2022-12-04T02:11:58.401Z,98349.91
2022-12-04T02:14:44.491Z,98358.88
2022-12-04T02:17:25.196Z,98351.63
2022-12-04T02:20:18.759Z,98354.97
2022-12-04T02:23:09.736Z,98344.00
2022-12-04T02:26:25.676Z,98340.59
2022-12-04T02:29:23.466Z,98342.28
2022-12-04T02:32:09.456Z,98354.34
2022-12-04T02:35:08.015Z,98348.28
2022-12-04T02:37:45.699Z,98349.03
2022-12-04T02:40:29.285Z,98352.22
2022-12-04T02:43:17.901Z,98354.78
2022-12-04T02:46:00.282Z,98361.78
2022-12-04T02:48:32.234Z,98359.97
2022-12-04T02:51:02.164Z,98369.34
2022-12-04T02:53:36.179Z,98366.13
2022-12-04T02:56:12.671Z,98373.53
2022-12-04T02:59:31.671Z,98375.19
2022-12-04T03:02:10.409Z,98367.59
2022-12-04T03:04:39.659Z,98363.69
2022-12-04T03:07:15.094Z,98372.09
2022-12-04T03:09:55.058Z,98380.19
2022-12-04T03:13:05.267Z,98379.31
2022-12-04T03:15:43.677Z,98382.84
2022-12-04T03:18:28.036Z,98385.44
2022-12-04T03:21:02.920Z,98383.22
2022-12-04T03:24:03.220Z,98387.91
2022-12-04T03:26:46.956Z,98375.59
2022-12-04T03:29:25.835Z,98379.31
2022-12-04T03:32:12.086Z,98382.47
2022-12-04T03:35:13.889Z,98384.16
2022-12-04T03:38:01.844Z,98382.22
2022-12-04T03:40:45.048Z,98387.50
2022-12-04T03:43:23.802Z,98387.06
2022-12-04T03:46:03.230Z,98386.91
2022-12-04T03:48:42.795Z,98380.97
2022-12-04T03:51:18.224Z,98385.50
2022-12-04T03:54:10.255Z,98379.47
2022-12-04T03:56:44.690Z,98382.59
2022-12-04T03:59:20.641Z,98383.97
2022-12-04T04:01:51.011Z,98386.88
2022-12-04T04:04:30.309Z,98377.13
2022-12-04T04:07:13.938Z,98383.06
2022-12-04T04:09:47.167Z,98374.38
2022-12-04T04:12:23.951Z,98372.53
2022-12-04T04:15:17.336Z,98368.50
2022-12-04T04:18:06.247Z,98371.28
2022-12-04T04:21:07.953Z,98370.63
2022-12-04T04:24:01.695Z,98351.88
2022-12-04T04:26:34.487Z,98347.09
2022-12-04T04:29:01.308Z,98345.50
2022-12-04T04:31:43.539Z,98342.44
2022-12-04T04:34:39.872Z,98353.56
2022-12-04T04:37:37.285Z,98362.09
2022-12-04T04:40:29.453Z,98355.41
2022-12-04T04:43:15.835Z,98361.53
2022-12-04T04:45:52.532Z,98360.28
2022-12-04T04:48:25.855Z,98364.28
2022-12-04T04:50:53.902Z,98362.53
2022-12-04T04:53:29.172Z,98361.00
2022-12-04T04:55:57.459Z,98357.66
2022-12-04T04:58:24.001Z,98360.19
2022-12-04T05:01:09.740Z,98358.06
2022-12-04T05:03:36.457Z,98367.53
2022-12-04T05:06:03.075Z,98373.97
2022-12-04T05:08:30.156Z,98368.03
2022-12-04T05:10:56.726Z,98357.00
2022-12-04T05:13:23.249Z,98351.25
2022-12-04T05:16:03.077Z,98354.00
2022-12-04T05:18:30.297Z,98342.31
2022-12-04T05:20:56.881Z,98344.31
2022-12-04T05:23:24.001Z,98338.34
2022-12-04T05:25:50.622Z,98342.31
2022-12-04T05:28:17.396Z,98340.28
2022-12-04T05:30:54.829Z,98340.84
2022-12-04T05:33:21.378Z,98339.84
2022-12-04T05:35:58.845Z,98346.78
2022-12-04T05:38:25.730Z,98346.63
2022-12-04T05:40:52.339Z,98346.28
2022-12-04T05:43:19.404Z,98349.00
2022-12-04T05:45:46.019Z,98354.25
2022-12-04T05:48:12.463Z,98344.13
2022-12-04T05:50:39.229Z,98346.47
2022-12-04T05:53:05.729Z,98351.84
2022-12-04T05:55:32.353Z,98344.19
2022-12-04T05:57:59.234Z,98343.78
2022-12-04T06:00:26.747Z,98345.50
2022-12-04T06:02:53.288Z,98347.31
2022-12-04T06:05:19.952Z,98347.84
2022-12-04T06:07:46.572Z,98347.31
2022-12-04T06:10:13.133Z,98350.91
2022-12-04T06:12:39.660Z,98347.09
2022-12-04T06:15:06.813Z,98351.44
2022-12-04T06:17:33.281Z,98349.09
2022-12-04T06:20:00.156Z,98351.31
2022-12-04T06:22:26.944Z,98353.13
2022-12-04T06:24:53.423Z,98351.19
2022-12-04T06:27:28.343Z,98339.94
2022-12-04T06:29:55.608Z,98352.81
2022-12-04T06:32:22.566Z,98351.06
2022-12-04T06:34:54.314Z,98360.44
2022-12-04T06:37:23.992Z,98353.88
2022-12-04T06:39:50.473Z,98348.88
2022-12-04T06:42:17.397Z,98347.31
2022-12-04T06:44:43.864Z,98348.31
2022-12-04T06:47:10.360Z,98349.81
2022-12-04T06:49:36.837Z,98351.75
2022-12-04T06:52:03.811Z,98345.00
2022-12-04T06:54:30.348Z,98348.47
2022-12-04T06:56:56.819Z,98354.19
2022-12-04T06:59:23.751Z,98351.19
2022-12-04T07:01:50.330Z,98353.16
2022-12-04T07:04:16.924Z,98360.66
2022-12-04T07:06:43.493Z,98351.84
2022-12-04T07:09:18.780Z,98356.28
2022-12-04T07:11:46.060Z,98363.56
2022-12-04T07:14:13.704Z,98365.09
2022-12-04T07:16:42.895Z,98378.25
2022-12-04T07:19:13.950Z,98372.66
2022-12-04T07:21:41.571Z,98373.75
2022-12-04T07:24:11.656Z,98372.53
2022-12-04T07:26:38.112Z,98371.81
2022-12-04T07:29:04.616Z,98371.91
2022-12-04T07:31:31.272Z,98367.53
2022-12-04T07:33:58.916Z,98376.34
2022-12-04T07:36:26.396Z,98375.94
2022-12-04T07:38:55.738Z,98373.25
2022-12-04T07:41:22.379Z,98373.06
2022-12-04T07:43:48.940Z,98375.22
2022-12-04T07:46:22.698Z,98365.63
2022-12-04T07:48:49.301Z,98367.28
2022-12-04T07:51:20.822Z,98365.19
2022-12-04T07:53:49.079Z,98366.09
2022-12-04T07:56:16.685Z,98370.25
2022-12-04T07:58:44.139Z,98374.72
2022-12-04T08:01:13.480Z,98376.22
2022-12-04T08:03:48.371Z,98374.63
2022-12-04T08:06:19.365Z,98375.38
2022-12-04T08:08:47.619Z,98365.78
2022-12-04T08:11:18.053Z,98376.72
2022-12-04T08:13:45.768Z,98376.16
2022-12-04T08:16:14.630Z,98371.34
2022-12-04T08:18:46.387Z,98374.34
2022-12-04T08:21:19.203Z,98367.31
2022-12-04T08:23:45.878Z,98365.50
2022-12-04T08:26:13.605Z,98363.88
2022-12-04T08:28:41.380Z,98368.09
2022-12-04T08:31:21.775Z,98357.88
2022-12-04T08:33:50.937Z,98358.72
2022-12-04T08:36:20.612Z,98349.06
2022-12-04T08:38:48.843Z,98347.72
2022-12-04T08:41:19.465Z,98354.81
2022-12-04T08:43:45.949Z,98356.13
2022-12-04T08:46:16.425Z,98356.91
2022-12-04T08:48:43.716Z,98362.50
2022-12-04T08:51:20.970Z,98365.91
2022-12-04T08:53:48.481Z,98358.69
2022-12-04T08:56:15.128Z,98351.22
2022-12-04T08:58:41.816Z,98369.44
2022-12-04T09:01:11.950Z,98371.31
2022-12-04T09:03:39.344Z,98373.72
2022-12-04T09:06:08.048Z,98379.22
2022-12-04T09:08:36.090Z,98379.38
2022-12-04T09:11:15.995Z,98375.03
2022-12-04T09:13:43.865Z,98384.09
2022-12-04T09:16:16.247Z,98384.66
2022-12-04T09:18:43.326Z,98385.06
2022-12-04T09:21:13.622Z,98384.31
2022-12-04T09:23:40.924Z,98382.72
2022-12-04T09:26:29.008Z,98375.47
2022-12-04T09:28:58.928Z,98375.19
2022-12-04T09:31:26.201Z,98382.69
2022-12-04T09:33:53.110Z,98378.09
2022-12-04T09:36:20.212Z,98374.47
2022-12-04T09:38:50.185Z,98383.28
2022-12-04T09:41:50.286Z,98385.31
2022-12-04T09:44:26.904Z,98381.22
2022-12-04T09:47:02.302Z,98384.06
2022-12-04T09:49:50.818Z,98382.66
2022-12-04T09:52:46.891Z,98375.00
2022-12-04T09:55:27.576Z,98377.47
2022-12-04T09:58:02.467Z,98371.38
2022-12-04T10:00:31.554Z,98362.44
2022-12-04T10:03:06.385Z,98360.31
2022-12-04T10:05:53.269Z,98357.28
2022-12-04T10:08:31.575Z,98357.97
2022-12-04T10:11:13.943Z,98351.50
2022-12-04T10:14:22.588Z,98354.53
2022-12-04T10:17:20.322Z,98352.34
2022-12-04T10:20:08.323Z,98345.00
2022-12-04T10:23:18.300Z,98353.06
2022-12-04T10:25:44.784Z,98342.19
2022-12-04T10:28:27.505Z,98343.50
2022-12-04T10:30:59.491Z,98334.97
2022-12-04T10:33:55.205Z,98343.03
2022-12-04T10:36:30.053Z,98329.16
2022-12-04T10:39:03.572Z,98332.19
2022-12-04T10:41:49.725Z,98323.00
2022-12-04T10:44:19.416Z,98326.22
2022-12-04T10:46:47.103Z,98329.25
2022-12-04T10:49:25.801Z,98334.69
2022-12-04T10:51:52.782Z,98323.84
2022-12-04T10:54:43.775Z,98329.13
2022-12-04T10:57:13.882Z,98319.31
2022-12-04T10:59:55.935Z,98313.88
2022-12-04T11:02:28.994Z,98301.72
2022-12-04T11:05:02.816Z,98301.19
2022-12-04T11:07:35.896Z,98305.56
2022-12-04T11:10:22.010Z,98304.38
2022-12-04T11:12:56.645Z,98305.19
2022-12-04T11:15:24.346Z,98294.19
2022-12-04T11:17:52.541Z,98290.75
2022-12-04T11:20:27.456Z,98296.97
2022-12-04T11:22:58.099Z,98294.56
2022-12-04T11:25:36.930Z,98297.63
2022-12-04T11:28:04.784Z,98291.84
2022-12-04T11:30:37.023Z,98290.13
2022-12-04T11:33:15.880Z,98289.81
2022-12-04T11:35:42.652Z,98287.53
2022-12-04T11:38:17.265Z,98287.50
2022-12-04T11:40:58.888Z,98290.66
2022-12-04T11:43:29.345Z,98291.97
2022-12-04T11:46:01.674Z,98286.66
2022-12-04T11:48:31.642Z,98288.22
2022-12-04T11:51:28.573Z,98284.72
2022-12-04T11:54:17.310Z,98291.91
2022-12-04T11:56:58.748Z,98279.16
2022-12-04T11:59:59.726Z,98271.53
2022-12-04T12:02:48.246Z,98257.69
2022-12-04T12:05:53.873Z,98246.38
2022-12-04T12:09:16.855Z,98243.63
2022-12-04T12:12:24.559Z,98241.19
2022-12-04T12:15:20.935Z,98231.28
2022-12-04T12:18:36.429Z,98232.25
2022-12-04T12:21:24.088Z,98228.34
2022-12-04T12:24:26.097Z,98221.38
2022-12-04T12:27:41.154Z,98224.88
2022-12-04T12:30:20.633Z,98216.84
2022-12-04T12:32:53.896Z,98222.03
2022-12-04T12:35:29.964Z,98219.34
2022-12-04T12:38:06.343Z,98217.13
2022-12-04T12:40:58.597Z,98219.31
2022-12-04T12:43:35.064Z,98224.16
2022-12-04T12:46:19.814Z,98231.63
2022-12-04T12:48:58.869Z,98230.81
2022-12-04T12:51:55.088Z,98234.06
2022-12-04T12:54:31.290Z,98242.38
2022-12-04T12:57:11.932Z,98247.28
2022-12-04T12:59:53.943Z,98238.09
2022-12-04T13:02:32.389Z,98247.13
2022-12-04T13:05:09.066Z,98235.31
2022-12-04T13:07:47.748Z,98244.09
2022-12-04T13:10:47.077Z,98247.06
2022-12-04T13:13:44.474Z,98251.44
2022-12-04T13:16:33.848Z,98250.75
2022-12-04T13:19:25.029Z,98242.88
2022-12-04T13:22:23.242Z,98241.03
2022-12-04T13:25:46.699Z,98254.50
2022-12-04T13:28:31.308Z,98261.25
2022-12-04T13:31:25.803Z,98259.03
2022-12-04T13:34:18.535Z,98263.97
2022-12-04T13:37:30.738Z,98259.25
2022-12-04T13:40:09.182Z,98262.41
2022-12-04T13:42:36.195Z,98253.28
2022-12-04T13:45:26.566Z,98245.00
2022-12-04T13:48:02.169Z,98237.91
2022-12-04T13:50:38.951Z,98241.19
2022-12-04T13:53:06.790Z,98232.47
2022-12-04T13:55:39.710Z,98238.13
2022-12-04T13:58:12.183Z,98245.56
2022-12-04T14:00:43.109Z,98230.47
2022-12-04T14:03:30.080Z,98237.66
2022-12-04T14:05:56.867Z,98232.63
2022-12-04T14:08:28.183Z,98237.84
2022-12-04T14:11:09.168Z,98231.38
2022-12-04T14:13:52.295Z,98232.50
2022-12-04T14:16:26.807Z,98228.72
2022-12-04T14:19:00.677Z,98225.47
2022-12-04T14:21:40.561Z,98223.38
2022-12-04T14:24:35.060Z,98217.25
2022-12-04T14:27:34.552Z,98217.72
2022-12-04T14:30:02.413Z,98215.47
2022-12-04T14:32:34.244Z,98214.66
2022-12-04T14:35:02.652Z,98213.22
2022-12-04T14:37:40.588Z,98206.84
2022-12-04T14:40:20.238Z,98198.25
2022-12-04T14:42:49.910Z,98202.31
2022-12-04T14:45:52.307Z,98205.25
2022-12-04T14:48:33.329Z,98204.25
2022-12-04T14:51:21.597Z,98193.28
2022-12-04T14:54:29.438Z,98195.50
2022-12-04T14:57:33.853Z,98195.63
2022-12-04T15:00:01.554Z,98196.84
2022-12-04T15:02:41.572Z,98192.16
2022-12-04T15:05:19.803Z,98195.19
2022-12-04T15:07:54.517Z,98206.53
2022-12-04T15:10:47.853Z,98196.63
2022-12-04T15:13:31.976Z,98202.88
2022-12-04T15:16:15.481Z,98203.16
2022-12-04T15:18:53.290Z,98200.75
2022-12-04T15:21:19.954Z,98202.31
2022-12-04T15:23:46.488Z,98207.75
2022-12-04T15:26:20.927Z,98197.97
2022-12-04T15:29:07.067Z,98192.13
2022-12-04T15:31:46.944Z,98188.81
2022-12-04T15:34:19.104Z,98196.28
2022-12-04T15:36:54.809Z,98188.34
2022-12-04T15:39:29.105Z,98191.59
2022-12-04T15:42:06.897Z,98194.59
2022-12-04T15:44:35.417Z,98196.63
2022-12-04T15:47:16.917Z,98194.88
2022-12-04T15:49:43.377Z,98199.31
2022-12-04T15:52:09.844Z,98200.06
2022-12-04T15:54:41.458Z,98211.88
2022-12-04T15:57:38.591Z,98219.28
2022-12-04T16:00:22.765Z,98223.13
2022-12-04T16:02:50.309Z,98226.00
2022-12-04T16:05:25.783Z,98234.22
2022-12-04T16:08:00.340Z,98239.69
2022-12-04T16:10:32.756Z,98240.47
2022-12-04T16:13:03.310Z,98240.06
2022-12-04T16:15:47.759Z,98241.22
2022-12-04T16:18:14.532Z,98248.56
2022-12-04T16:20:41.528Z,98254.28
2022-12-04T16:23:09.275Z,98251.44
2022-12-04T16:25:35.748Z,98253.53
2022-12-04T16:28:02.259Z,98251.03
2022-12-04T16:30:33.519Z,98252.84
2022-12-04T16:33:00.096Z,98255.94
2022-12-04T16:35:26.800Z,98250.59
2022-12-04T16:37:53.385Z,98250.75
2022-12-04T16:40:19.885Z,98251.66
2022-12-04T16:42:46.437Z,98249.75
2022-12-04T16:45:26.202Z,98246.81
2022-12-04T16:47:52.930Z,98253.66
2022-12-04T16:50:19.594Z,98257.53
2022-12-04T16:52:46.180Z,98253.16
2022-12-04T16:55:36.090Z,98256.28
2022-12-04T16:58:04.702Z,98251.41
2022-12-04T17:00:31.878Z,98252.56
2022-12-04T17:03:01.634Z,98251.41
2022-12-04T17:05:33.291Z,98255.56
2022-12-04T17:08:00.559Z,98257.53
2022-12-04T17:10:29.350Z,98258.41
2022-12-04T17:12:56.043Z,98254.38
2022-12-04T17:15:22.626Z,98262.16
2022-12-04T17:17:50.449Z,98262.88
2022-12-04T17:20:20.204Z,98254.38
2022-12-04T17:22:47.827Z,98247.00
2022-12-04T17:25:15.996Z,98242.72
2022-12-04T17:27:43.309Z,98242.25
2022-12-04T17:30:12.016Z,98242.84
2022-12-04T17:32:38.797Z,98244.91
2022-12-04T17:35:07.877Z,98239.97
2022-12-04T17:37:35.905Z,98244.53
2022-12-04T17:40:03.345Z,98234.13
2022-12-04T17:42:29.820Z,98249.81
2022-12-04T17:44:56.511Z,98250.34
2022-12-04T17:47:23.419Z,98249.38
2022-12-04T17:49:49.961Z,98254.97
2022-12-04T17:52:18.712Z,98252.03
2022-12-04T17:54:45.610Z,98246.44
2022-12-04T17:57:12.105Z,98246.75
2022-12-04T17:59:38.824Z,98244.69
2022-12-04T18:02:05.283Z,98249.00
2022-12-04T18:04:31.887Z,98246.88
2022-12-04T18:06:58.437Z,98251.03
2022-12-04T18:09:25.028Z,98249.13
2022-12-04T18:11:51.663Z,98246.97
2022-12-04T18:14:23.704Z,98249.75
2022-12-04T18:16:53.791Z,98241.34
2022-12-04T18:19:24.692Z,98234.19
2022-12-04T18:21:51.910Z,98233.97
2022-12-04T18:24:18.790Z,98236.69
2022-12-04T18:26:48.933Z,98234.19
2022-12-04T18:29:19.971Z,98232.53
2022-12-04T18:31:47.519Z,98235.88
2022-12-04T18:34:14.723Z,98236.47
2022-12-04T18:36:42.024Z,98238.72
2022-12-04T18:39:14.642Z,98238.72
2022-12-04T18:41:41.868Z,98237.22
2022-12-04T18:44:08.381Z,98242.22
2022-12-04T18:46:35.505Z,98239.56
2022-12-04T18:49:02.351Z,98240.97
2022-12-04T18:51:39.265Z,98228.00
2022-12-04T18:54:13.713Z,98234.56
2022-12-04T18:56:40.754Z,98239.16
2022-12-04T18:59:17.645Z,98241.75
2022-12-04T19:01:44.798Z,98239.63
2022-12-04T19:04:14.149Z,98239.09
2022-12-04T19:06:44.396Z,98246.25
2022-12-04T19:09:16.721Z,98239.91
2022-12-04T19:11:44.617Z,98243.53
2022-12-04T19:14:22.309Z,98242.78
2022-12-04T19:16:50.475Z,98250.84
2022-12-04T19:19:17.987Z,98250.06
2022-12-04T19:21:44.741Z,98250.34
2022-12-04T19:24:12.327Z,98259.84
2022-12-04T19:26:39.796Z,98258.78
2022-12-04T19:29:07.822Z,98262.94
2022-12-04T19:31:37.736Z,98263.63
2022-12-04T19:34:06.171Z,98262.28
2022-12-04T19:36:34.618Z,98269.53
2022-12-04T19:39:02.361Z,98258.38
2022-12-04T19:41:31.264Z,98257.31
2022-12-04T19:44:00.449Z,98251.66
2022-12-04T19:46:32.919Z,98251.28
2022-12-04T19:49:04.079Z,98239.09
2022-12-04T19:51:33.051Z,98246.31
2022-12-04T19:54:01.013Z,98241.69
2022-12-04T19:56:30.484Z,98235.66
2022-12-04T19:59:00.718Z,98227.94
2022-12-04T20:01:30.214Z,98221.56
2022-12-04T20:03:58.956Z,98220.53
2022-12-04T20:06:28.336Z,98218.25
2022-12-04T20:09:03.479Z,98213.25
2022-12-04T20:11:30.932Z,98210.66
2022-12-04T20:14:01.238Z,98215.88
2022-12-04T20:16:31.290Z,98206.91
2022-12-04T20:18:58.938Z,98206.28
2022-12-04T20:21:30.105Z,98210.22
2022-12-04T20:24:00.406Z,98205.66
2022-12-04T20:26:31.405Z,98201.09
2022-12-04T20:29:00.598Z,98198.75
2022-12-04T20:31:33.848Z,98200.50
2022-12-04T20:34:03.383Z,98196.84
2022-12-04T20:36:35.536Z,98201.63
2022-12-04T20:39:02.203Z,98208.03
2022-12-04T20:41:30.595Z,98217.91
2022-12-04T20:44:01.450Z,98226.44
2022-12-04T20:46:35.040Z,98229.13
2022-12-04T20:49:06.616Z,98227.59
2022-12-04T20:51:37.455Z,98225.97
2022-12-04T20:54:04.924Z,98226.75
2022-12-04T20:56:35.683Z,98231.03
2022-12-04T20:59:10.072Z,98230.91
2022-12-04T21:01:37.741Z,98238.84
2022-12-04T21:04:05.630Z,98244.78
2022-12-04T21:06:37.205Z,98244.91
2022-12-04T21:09:15.700Z,98241.38
2022-12-04T21:11:46.359Z,98243.22
2022-12-04T21:14:41.911Z,98243.63
2022-12-04T21:17:16.463Z,98247.25
2022-12-04T21:19:43.158Z,98255.31
2022-12-04T21:22:09.669Z,98256.31
2022-12-04T21:24:38.423Z,98249.13
2022-12-04T21:27:07.722Z,98242.06
2022-12-04T21:29:34.788Z,98252.50
2022-12-04T21:32:01.628Z,98255.88
2022-12-04T21:34:28.165Z,98252.13
2022-12-04T21:36:54.739Z,98250.22
2022-12-04T21:39:23.797Z,98250.22
2022-12-04T21:42:09.744Z,98250.38
2022-12-04T21:44:36.600Z,98248.34
2022-12-04T21:47:03.359Z,98250.75
2022-12-04T21:49:29.838Z,98250.56
2022-12-04T21:51:58.107Z,98254.34
2022-12-04T21:54:27.712Z,98254.06
2022-12-04T21:56:55.021Z,98250.13
2022-12-04T21:59:22.170Z,98247.88
2022-12-04T22:01:48.814Z,98251.53
2022-12-04T22:04:15.896Z,98254.69
2022-12-04T22:06:43.024Z,98253.38
2022-12-04T22:09:12.282Z,98253.22
2022-12-04T22:11:43.661Z,98259.78
2022-12-04T22:14:11.654Z,98270.41
2022-12-04T22:16:42.671Z,98272.16
2022-12-04T22:19:11.724Z,98269.13
2022-12-04T22:21:38.892Z,98274.97
2022-12-04T22:24:06.333Z,98269.69
2022-12-04T22:26:33.432Z,98274.63
2022-12-04T22:29:00.363Z,98273.59
2022-12-04T22:31:29.809Z,98269.78
2022-12-04T22:34:00.513Z,98277.47
2022-12-04T22:36:31.425Z,98274.16
2022-12-04T22:39:09.329Z,98270.81
2022-12-04T22:41:36.201Z,98275.59
2022-12-04T22:44:02.872Z,98271.22
2022-12-04T22:46:29.522Z,98274.38
2022-12-04T22:48:56.237Z,98274.75
2022-12-04T22:51:22.943Z,98276.75
2022-12-04T22:53:56.514Z,98273.78
2022-12-04T22:56:30.276Z,98269.28
2022-12-04T22:58:58.551Z,98270.91
2022-12-04T23:01:31.446Z,98274.81
2022-12-04T23:03:59.395Z,98276.28
2022-12-04T23:06:31.365Z,98271.38
2022-12-04T23:09:12.515Z,98274.13
2022-12-04T23:11:40.462Z,98263.72
2022-12-04T23:14:13.406Z,98264.56
2022-12-04T23:16:40.532Z,98275.34
2022-12-04T23:19:10.694Z,98276.03
2022-12-04T23:21:37.352Z,98268.44
2022-12-04T23:24:04.472Z,98273.34
2022-12-04T23:26:37.951Z,98267.25
2022-12-04T23:29:23.257Z,98275.78
2022-12-04T23:31:52.545Z,98277.16
2022-12-04T23:34:19.120Z,98277.66
2022-12-04T23:36:45.620Z,98276.19
2022-12-04T23:39:12.167Z,98277.16
2022-12-04T23:41:38.724Z,98272.28
2022-12-04T23:44:05.265Z,98267.72
2022-12-04T23:46:33.177Z,98266.53
2022-12-04T23:49:01.344Z,98270.84
2022-12-04T23:51:28.308Z,98273.00
2022-12-04T23:53:55.112Z,98279.34
2022-12-04T23:56:25.829Z,98277.84
2022-12-04T23:58:55.698Z,98276.88
